This is the latest recevied weather packets stored in our database for station/object N3LF. If no packets are shown the sender has not sent any weather packets the latest 10 day(s).
| Time | Temp. | Humidity | Pressure | Rain* | Wind** | Luminosity | Snow |
|---|---|---|---|---|---|---|---|
| 1788208569 | 35.56° C | 51% | 1020.7 hPa | 0 mm | - | 465 W/m² | - |
| 1788208268 | 34.44° C | 53% | 1021 hPa | 0 mm | - | 472 W/m² | - |
| 1788207968 | 34.44° C | 52% | 1021 hPa | 0 mm | - | 490 W/m² | - |
| 1788207668 | 35.56° C | 50% | 1021 hPa | 0 mm | - | 506 W/m² | - |
| 1788207366 | 35.56° C | 51% | 1021 hPa | 0 mm | - | 527 W/m² | - |
| 1788207062 | 35° C | 52% | 1021 hPa | 0 mm | - | 550 W/m² | - |
| 1788206758 | 35.56° C | 50% | 1021 hPa | 0 mm | - | 566 W/m² | - |
| 1788206458 | 35.56° C | 53% | 1021 hPa | 0 mm | - | 580 W/m² | - |
| 1788206153 | 35° C | 52% | 1021.3 hPa | 0 mm | - | 592 W/m² | - |
| 1788205848 | 34.44° C | 54% | 1021.3 hPa | 0 mm | - | 609 W/m² | - |
| 1788205544 | 32.78° C | 56% | 1021.2 hPa | 0 mm | - | 642 W/m² | - |
| 1788205238 | 32.22° C | 59% | 1021.2 hPa | 0 mm | - | 292 W/m² | - |
| 1788204933 | 31.67° C | 62% | 1021.2 hPa | 0 mm | - | 125 W/m² | - |
| 1788204628 | 32.78° C | 61% | 1021.5 hPa | 0 mm | - | 121 W/m² | - |
| 1788204323 | 32.78° C | 57% | 1021.4 hPa | 0 mm | - | 144 W/m² | - |
| 1788204018 | 33.33° C | 58% | 1021.5 hPa | 0 mm | - | 138 W/m² | - |
| 1788203709 | 33.89° C | 57% | 1021.5 hPa | 0 mm | - | 137 W/m² | - |
| 1788203405 | 35° C | 55% | 1021.6 hPa | 0 mm | - | 152 W/m² | - |
| 1788203113 | 33.89° C | 56% | 1021.5 hPa | 0 mm | - | 689 W/m² | - |
| 1788202798 | 33.33° C | 59% | 1021.7 hPa | 0 mm | - | 230 W/m² | - |
| 1788202494 | 33.89° C | 57% | 1021.6 hPa | 0 mm | - | 151 W/m² | - |
| 1788202194 | 35° C | 55% | 1021.7 hPa | 0 mm | - | 736 W/m² | - |
| 1788201889 | 35° C | 56% | 1021.8 hPa | 0 mm | - | 151 W/m² | - |
| 1788201584 | 33.89° C | 56% | 1021.7 hPa | 0 mm | - | 734 W/m² | - |
| 1788201283 | 33.89° C | 58% | 1021.7 hPa | 0 mm | - | 162 W/m² | - |
* Rain latest hour (hover to see other rain measurements)
** Current wind speed in m/s (hover to see current wind gust speed)